createdAt,value
2023-03-15T00:00:23.983Z,98141.53
2023-03-15T00:02:50.894Z,98145.53
2023-03-15T00:05:17.620Z,98168.97
2023-03-15T00:07:44.359Z,97883.53
2023-03-15T00:10:11.520Z,98139.47
2023-03-15T00:12:38.245Z,98156.81
2023-03-15T00:15:05.519Z,97936.75
2023-03-15T00:17:34.778Z,98317.63
2023-03-15T00:20:02.059Z,97993.31
2023-03-15T00:22:28.746Z,98098.72
2023-03-15T00:24:55.327Z,98150.22
2023-03-15T00:27:21.975Z,98133.41
2023-03-15T00:29:48.755Z,98154.59
2023-03-15T00:32:15.478Z,98090.94
2023-03-15T00:34:42.358Z,97978.41
2023-03-15T00:37:09.088Z,98135.47
2023-03-15T00:39:37.876Z,98119.19
2023-03-15T00:42:08.111Z,97944.50
2023-03-15T00:44:34.743Z,98182.75
2023-03-15T00:47:01.359Z,98179.34
2023-03-15T00:49:28.012Z,97944.91
2023-03-15T00:51:55.903Z,98136.28
2023-03-15T00:54:23.795Z,98095.19
2023-03-15T00:56:50.833Z,98179.78
2023-03-15T00:59:17.501Z,98045.16
2023-03-15T01:01:44.896Z,98023.31
2023-03-15T01:04:14.972Z,98186.94
2023-03-15T01:06:42.395Z,98198.50
2023-03-15T01:09:10.132Z,98192.63
2023-03-15T01:11:36.830Z,98199.75
2023-03-15T01:14:08.749Z,98224.88
2023-03-15T01:16:35.878Z,98109.34
2023-03-15T01:19:02.528Z,98165.28
2023-03-15T01:21:29.199Z,98146.69
2023-03-15T01:23:55.816Z,98231.81
2023-03-15T01:26:22.603Z,98203.72
2023-03-15T01:28:49.270Z,98069.19
2023-03-15T01:31:22.616Z,98027.56
2023-03-15T01:33:49.502Z,98203.47
2023-03-15T01:36:16.702Z,98238.91
2023-03-15T01:38:43.654Z,98234.84
2023-03-15T01:41:14.580Z,98236.88
2023-03-15T01:43:47.288Z,98140.97
2023-03-15T01:46:20.185Z,98234.91
2023-03-15T01:48:57.061Z,98173.47
2023-03-15T01:51:42.905Z,98260.59
2023-03-15T01:54:12.326Z,98106.78
2023-03-15T01:56:44.671Z,98182.66
2023-03-15T01:59:23.927Z,98208.69
2023-03-15T02:01:54.602Z,98470.34
2023-03-15T02:04:27.790Z,98404.69
2023-03-15T02:06:59.535Z,98269.63
2023-03-15T02:09:44.314Z,98278.22
2023-03-15T02:12:11.943Z,98209.94
2023-03-15T02:14:39.761Z,98294.28
2023-03-15T02:17:07.988Z,98305.63
2023-03-15T02:19:40.686Z,98302.09
2023-03-15T02:22:23.564Z,98023.75
2023-03-15T02:24:55.550Z,98092.84
2023-03-15T02:27:32.252Z,98312.19
2023-03-15T02:29:59.103Z,98144.09
2023-03-15T02:32:25.805Z,98266.22
2023-03-15T02:34:52.492Z,97982.09
2023-03-15T02:37:19.091Z,98209.09
2023-03-15T02:39:46.316Z,98159.66
2023-03-15T02:42:13.617Z,98251.41
2023-03-15T02:44:44.063Z,98047.38
2023-03-15T02:47:27.130Z,98328.97
2023-03-15T02:49:54.297Z,97923.00
2023-03-15T02:52:22.666Z,98305.50
2023-03-15T02:54:50.133Z,98334.06
2023-03-15T02:57:18.659Z,98153.53
2023-03-15T02:59:46.674Z,98159.28
2023-03-15T03:02:13.497Z,98367.91
2023-03-15T03:04:42.000Z,98343.06
2023-03-15T03:07:09.152Z,98308.97
2023-03-15T03:09:46.594Z,98347.78
2023-03-15T03:12:14.158Z,98302.06
2023-03-15T03:14:43.283Z,98361.69
2023-03-15T03:17:13.764Z,98301.66
2023-03-15T03:19:40.760Z,98358.34
2023-03-15T03:22:08.018Z,98256.78
2023-03-15T03:24:34.841Z,98311.31
2023-03-15T03:27:01.434Z,98348.09
2023-03-15T03:29:31.708Z,98241.94
2023-03-15T03:32:01.147Z,98133.94
2023-03-15T03:34:27.802Z,98263.25
2023-03-15T03:36:55.582Z,98367.66
2023-03-15T03:39:36.886Z,98313.34
2023-03-15T03:42:03.873Z,98400.44
2023-03-15T03:44:30.561Z,98360.13
2023-03-15T03:46:57.171Z,98301.28
2023-03-15T03:49:23.805Z,98222.53
2023-03-15T03:51:50.446Z,98363.81
2023-03-15T03:54:17.730Z,98372.63
2023-03-15T03:56:44.518Z,98340.22
2023-03-15T03:59:14.109Z,98351.53
2023-03-15T04:01:51.198Z,98353.88
2023-03-15T04:04:17.928Z,98261.81
2023-03-15T04:06:45.981Z,98418.66
2023-03-15T04:09:16.521Z,98249.00
2023-03-15T04:11:45.298Z,98454.94
2023-03-15T04:14:13.688Z,98447.28
2023-03-15T04:16:42.652Z,98366.22
2023-03-15T04:19:12.878Z,98455.94
2023-03-15T04:21:47.091Z,98136.91
2023-03-15T04:24:21.101Z,98469.56
2023-03-15T04:27:14.586Z,98440.84
2023-03-15T04:30:19.729Z,98451.56
2023-03-15T04:33:11.062Z,98420.22
2023-03-15T04:36:02.822Z,98271.72
2023-03-15T04:38:35.630Z,98372.31
2023-03-15T04:41:27.006Z,98349.53
2023-03-15T04:43:59.833Z,98424.34
2023-03-15T04:46:45.531Z,98363.50
2023-03-15T04:49:21.395Z,98313.50
2023-03-15T04:52:11.194Z,98419.75
2023-03-15T04:55:01.022Z,98843.38
2023-03-15T04:57:46.110Z,98538.78
2023-03-15T05:00:33.279Z,98340.50
2023-03-15T05:03:19.344Z,98506.66
2023-03-15T05:05:57.898Z,98221.16
2023-03-15T05:08:48.111Z,98449.31
2023-03-15T05:11:35.544Z,98285.97
2023-03-15T05:14:41.138Z,98507.97
2023-03-15T05:17:26.524Z,98509.53
2023-03-15T05:20:09.265Z,98530.28
2023-03-15T05:22:47.089Z,98519.69
2023-03-15T05:25:38.643Z,98388.41
2023-03-15T05:28:18.520Z,98433.75
2023-03-15T05:30:56.855Z,98528.81
2023-03-15T05:33:47.225Z,98373.53
2023-03-15T05:36:34.310Z,98385.38
2023-03-15T05:39:16.709Z,98362.53
2023-03-15T05:42:05.497Z,98432.94
2023-03-15T05:44:38.114Z,98291.53
2023-03-15T05:47:23.740Z,98461.84
2023-03-15T05:50:08.784Z,98493.56
2023-03-15T05:52:44.891Z,98562.31
2023-03-15T05:55:25.339Z,98566.38
2023-03-15T05:58:06.392Z,98581.22
2023-03-15T06:00:46.744Z,98374.31
2023-03-15T06:03:27.375Z,98591.00
2023-03-15T06:06:03.414Z,98385.22
2023-03-15T06:08:39.061Z,98584.38
2023-03-15T06:11:06.392Z,98587.81
2023-03-15T06:13:34.290Z,98771.34
2023-03-15T06:16:06.836Z,98534.19
2023-03-15T06:18:38.885Z,98537.28
2023-03-15T06:21:05.639Z,98541.09
2023-03-15T06:23:33.093Z,98492.44
2023-03-15T06:25:59.686Z,98641.69
2023-03-15T06:28:29.017Z,98652.75
2023-03-15T06:31:12.423Z,98664.88
2023-03-15T06:33:48.519Z,98608.47
2023-03-15T06:36:23.324Z,98503.16
2023-03-15T06:38:53.992Z,98669.19
2023-03-15T06:41:23.859Z,98398.00
2023-03-15T06:44:01.197Z,98501.06
2023-03-15T06:46:28.334Z,98771.47
2023-03-15T06:48:55.756Z,98586.38
2023-03-15T06:51:23.417Z,98699.22
2023-03-15T06:53:51.630Z,98699.16
2023-03-15T06:56:18.899Z,98589.31
2023-03-15T06:58:48.539Z,98715.09
2023-03-15T07:01:15.767Z,98721.06
2023-03-15T07:03:48.218Z,98619.53
2023-03-15T07:06:17.801Z,98726.88
2023-03-15T07:08:44.431Z,98653.03
2023-03-15T07:11:11.409Z,98561.56
2023-03-15T07:13:38.210Z,98534.88
2023-03-15T07:16:05.226Z,98668.75
2023-03-15T07:18:40.681Z,98530.19
2023-03-15T07:21:10.232Z,98656.19
2023-03-15T07:23:37.069Z,98609.94
2023-03-15T07:26:03.907Z,98509.75
2023-03-15T07:28:30.572Z,98798.78
2023-03-15T07:31:03.040Z,98778.59
2023-03-15T07:33:32.294Z,98767.97
2023-03-15T07:35:59.959Z,98710.41
2023-03-15T07:38:28.921Z,98818.91
2023-03-15T07:40:58.993Z,98576.03
2023-03-15T07:43:28.149Z,98737.09
2023-03-15T07:46:09.694Z,98701.31
2023-03-15T07:48:36.574Z,98793.53
2023-03-15T07:51:03.408Z,98799.66
2023-03-15T07:53:33.178Z,98806.50
2023-03-15T07:56:01.373Z,98684.63
2023-03-15T07:58:30.808Z,98806.75
2023-03-15T08:00:57.838Z,98789.88
2023-03-15T08:03:30.757Z,98667.78
2023-03-15T08:05:57.569Z,98820.97
2023-03-15T08:08:24.217Z,98839.03
2023-03-15T08:10:50.856Z,98837.13
2023-03-15T08:13:17.648Z,98834.41
2023-03-15T08:15:47.777Z,98740.53
2023-03-15T08:18:14.859Z,98836.34
2023-03-15T08:20:41.601Z,98808.06
2023-03-15T08:23:09.293Z,98679.56
2023-03-15T08:25:40.706Z,98853.94
2023-03-15T08:28:07.397Z,98852.34
2023-03-15T08:30:34.052Z,98805.16
2023-03-15T08:33:00.848Z,98764.81
2023-03-15T08:35:28.174Z,98783.28
2023-03-15T08:37:55.486Z,98862.56
2023-03-15T08:40:24.752Z,98823.69
2023-03-15T08:42:53.012Z,98868.28
2023-03-15T08:45:20.685Z,98821.78
2023-03-15T08:47:47.373Z,98829.16
2023-03-15T08:50:16.080Z,98886.06
2023-03-15T08:52:43.672Z,98878.09
2023-03-15T08:55:14.313Z,98888.22
2023-03-15T08:57:42.942Z,98872.47
2023-03-15T09:00:17.994Z,98902.88
2023-03-15T09:02:44.759Z,98895.47
2023-03-15T09:05:11.978Z,98904.44
2023-03-15T09:07:42.927Z,98909.31
2023-03-15T09:10:13.246Z,98863.72
2023-03-15T09:12:40.967Z,98920.56
2023-03-15T09:15:08.181Z,98778.63
2023-03-15T09:17:35.009Z,98922.38
2023-03-15T09:20:01.548Z,98700.59
2023-03-15T09:22:39.122Z,98822.69
2023-03-15T09:25:06.842Z,98930.34
2023-03-15T09:27:33.808Z,98867.31
2023-03-15T09:30:00.574Z,98864.94
2023-03-15T09:32:27.870Z,98902.53
2023-03-15T09:34:54.542Z,98777.63
2023-03-15T09:37:21.982Z,98917.06
2023-03-15T09:39:48.776Z,98986.06
2023-03-15T09:42:41.864Z,98956.31
2023-03-15T09:45:11.318Z,98966.03
2023-03-15T09:47:53.134Z,98972.88
2023-03-15T09:50:26.832Z,98872.19
2023-03-15T09:53:03.230Z,98825.28
2023-03-15T09:55:30.098Z,98959.50
2023-03-15T09:58:02.543Z,98956.22
2023-03-15T10:00:40.141Z,98992.97
2023-03-15T10:03:14.158Z,98999.38
2023-03-15T10:05:44.748Z,99001.47
2023-03-15T10:08:21.389Z,98920.31
2023-03-15T10:10:54.132Z,99006.75
2023-03-15T10:13:32.792Z,99006.53
2023-03-15T10:16:20.464Z,99017.34
2023-03-15T10:19:03.036Z,98942.16
2023-03-15T10:21:38.124Z,99028.69
2023-03-15T10:24:14.615Z,99033.19
2023-03-15T10:29:20.177Z,99041.50
2023-03-15T10:31:47.391Z,99046.06
2023-03-15T10:34:15.639Z,99025.56
2023-03-15T10:36:54.314Z,99045.63
2023-03-15T10:39:22.854Z,99060.16
2023-03-15T10:41:50.721Z,99063.06
2023-03-15T10:44:26.275Z,98862.72
2023-03-15T10:47:23.062Z,99041.47
2023-03-15T10:49:56.827Z,99076.75
2023-03-15T10:52:35.534Z,99070.44
2023-03-15T10:55:06.992Z,99080.56
2023-03-15T10:57:39.088Z,99035.06
2023-03-15T11:00:23.848Z,99125.03
2023-03-15T11:03:00.768Z,98936.56
2023-03-15T11:05:32.205Z,99101.22
2023-03-15T11:08:00.975Z,99029.09
2023-03-15T11:10:39.773Z,98998.53
2023-03-15T11:13:13.219Z,99108.22
2023-03-15T11:15:46.880Z,99106.97
2023-03-15T11:18:26.889Z,99105.34
2023-03-15T11:20:56.764Z,99269.22
2023-03-15T11:23:34.881Z,99129.03
2023-03-15T11:26:02.582Z,99091.31
2023-03-15T11:28:32.017Z,99155.47
2023-03-15T11:31:05.505Z,99036.63
2023-03-15T11:33:59.453Z,99128.81
2023-03-15T11:36:34.405Z,99046.28
2023-03-15T11:39:04.542Z,99035.81
2023-03-15T11:41:38.700Z,99009.28
2023-03-15T11:44:41.620Z,99149.53
2023-03-15T11:47:14.608Z,99144.28
2023-03-15T11:49:55.022Z,98602.91
2023-03-15T11:52:24.773Z,99164.31
2023-03-15T11:54:54.448Z,99171.13
2023-03-15T11:57:33.149Z,99188.59
2023-03-15T12:00:35.053Z,99132.72
2023-03-15T12:03:29.669Z,99192.59
2023-03-15T12:06:01.837Z,99191.75
2023-03-15T12:08:40.919Z,99199.50
2023-03-15T12:11:23.377Z,99135.06
2023-03-15T12:14:20.048Z,99123.53
2023-03-15T12:16:46.960Z,99154.09
2023-03-15T12:19:21.428Z,99214.59
2023-03-15T12:21:57.690Z,99206.53
2023-03-15T12:24:30.827Z,99234.75
2023-03-15T12:27:03.881Z,99214.94
2023-03-15T12:29:33.061Z,99081.28
2023-03-15T12:32:02.698Z,99228.91
2023-03-15T12:34:46.863Z,99210.97
2023-03-15T12:37:46.658Z,99227.44
2023-03-15T12:40:16.083Z,99230.91
2023-03-15T12:42:42.606Z,99234.63
2023-03-15T12:45:17.982Z,99227.19
2023-03-15T12:47:47.223Z,99235.38
2023-03-15T12:50:51.038Z,99237.84
2023-03-15T12:53:27.091Z,99232.78
2023-03-15T12:56:02.867Z,99203.50
2023-03-15T12:58:41.173Z,99079.44
2023-03-15T13:01:16.210Z,99221.44
2023-03-15T13:03:43.989Z,99261.06
2023-03-15T13:06:27.916Z,99259.97
2023-03-15T13:09:06.462Z,99243.53
2023-03-15T13:11:48.225Z,99263.69
2023-03-15T13:14:27.040Z,99271.03
2023-03-15T13:17:07.125Z,99278.34
2023-03-15T13:19:43.042Z,99282.19
2023-03-15T13:22:17.910Z,99276.88
2023-03-15T13:25:15.775Z,99284.53
2023-03-15T13:27:52.103Z,99285.19
2023-03-15T13:30:34.291Z,99260.69
2023-03-15T13:33:11.074Z,99293.22
2023-03-15T13:35:47.083Z,99270.66
2023-03-15T13:38:25.217Z,99160.53
2023-03-15T13:40:53.345Z,99234.06
2023-03-15T13:43:20.085Z,99391.44
2023-03-15T13:45:46.800Z,99339.06
2023-03-15T13:48:13.452Z,99321.56
2023-03-15T13:50:40.930Z,99302.81
2023-03-15T13:53:07.843Z,99274.88
2023-03-15T13:55:36.192Z,99343.63
2023-03-15T13:58:08.590Z,99343.41
2023-03-15T14:00:36.866Z,99243.13
2023-03-15T14:03:13.272Z,99349.75
2023-03-15T14:05:49.551Z,99347.88
2023-03-15T14:08:25.694Z,99355.97
2023-03-15T14:11:01.729Z,99347.72
2023-03-15T14:13:32.527Z,99366.66
2023-03-15T14:16:07.118Z,99372.28
2023-03-15T14:18:39.355Z,99369.00
2023-03-15T14:21:15.871Z,99268.34
2023-03-15T14:23:46.116Z,99383.56
2023-03-15T14:26:22.962Z,99379.28
2023-03-15T14:28:54.963Z,99184.97
2023-03-15T14:31:25.453Z,99417.84
2023-03-15T14:34:07.465Z,99287.78
2023-03-15T14:36:45.468Z,99266.38
2023-03-15T14:39:42.232Z,99410.88
2023-03-15T14:42:12.116Z,99345.47
2023-03-15T14:44:38.777Z,99293.25
2023-03-15T14:47:16.494Z,99254.81
2023-03-15T14:49:43.245Z,99399.44
2023-03-15T14:52:13.398Z,99425.97
2023-03-15T14:54:45.830Z,99427.00
2023-03-15T14:57:12.613Z,99317.84
2023-03-15T14:59:39.567Z,99413.22
2023-03-15T15:02:07.478Z,99390.41
2023-03-15T15:04:34.432Z,99298.81
2023-03-15T15:07:03.200Z,99400.06
2023-03-15T15:09:31.085Z,99277.81
2023-03-15T15:11:57.769Z,99462.63
2023-03-15T15:14:24.660Z,99454.69
2023-03-15T15:16:52.320Z,99432.56
2023-03-15T15:19:19.301Z,99300.38
2023-03-15T15:21:46.153Z,99183.25
2023-03-15T15:24:18.485Z,99513.13
2023-03-15T15:26:46.916Z,99389.63
2023-03-15T15:29:15.295Z,99477.81
2023-03-15T15:31:42.806Z,99485.06
2023-03-15T15:34:11.116Z,99493.59
2023-03-15T15:36:43.433Z,99439.41
2023-03-15T15:39:30.859Z,99496.19
2023-03-15T15:41:59.177Z,99322.72
2023-03-15T15:44:26.680Z,99323.88
2023-03-15T15:46:53.712Z,99483.03
2023-03-15T15:49:21.083Z,99497.56
2023-03-15T15:51:49.896Z,99388.06
2023-03-15T15:54:20.384Z,99287.19
2023-03-15T15:56:56.341Z,99397.66
2023-03-15T15:59:25.575Z,99359.09
2023-03-15T16:02:00.684Z,99544.63
2023-03-15T16:04:28.972Z,99559.44
2023-03-15T16:06:58.898Z,99420.13
2023-03-15T16:09:28.007Z,99575.09
2023-03-15T16:11:55.227Z,99405.59
2023-03-15T16:14:21.909Z,99515.25
2023-03-15T16:16:48.586Z,99558.44
2023-03-15T16:19:15.155Z,99564.13
2023-03-15T16:21:49.049Z,99566.09
2023-03-15T16:24:23.060Z,99505.31
2023-03-15T16:26:50.587Z,99742.41
2023-03-15T16:29:19.993Z,99581.38
2023-03-15T16:31:47.673Z,99567.94
2023-03-15T16:34:17.312Z,99595.44
2023-03-15T16:36:49.001Z,99591.50
2023-03-15T16:39:16.818Z,99628.56
2023-03-15T16:41:43.377Z,99519.81
2023-03-15T16:44:15.055Z,99099.66
2023-03-15T16:46:42.377Z,99627.97
2023-03-15T16:49:09.051Z,99626.63
2023-03-15T16:51:39.218Z,99645.09
2023-03-15T16:54:19.570Z,99640.59
2023-03-15T16:56:48.943Z,99552.28
2023-03-15T16:59:17.564Z,99654.78
2023-03-15T17:01:46.053Z,99608.53
2023-03-15T17:04:14.771Z,99670.16
2023-03-15T17:06:46.091Z,99481.28
2023-03-15T17:09:18.208Z,99511.13
2023-03-15T17:11:47.813Z,99432.28
2023-03-15T17:14:21.048Z,99682.19
2023-03-15T17:16:48.168Z,99693.19
2023-03-15T17:19:15.511Z,99709.50
2023-03-15T17:21:44.182Z,99638.25
2023-03-15T17:24:12.281Z,99721.81
2023-03-15T17:26:44.014Z,99534.78
2023-03-15T17:29:14.919Z,99460.56
2023-03-15T17:31:44.792Z,99316.81
2023-03-15T17:34:11.654Z,98973.00
2023-03-15T17:36:38.755Z,99243.53
2023-03-15T17:39:07.643Z,99264.38
2023-03-15T17:41:42.029Z,99749.38
2023-03-15T17:44:10.614Z,98735.13
2023-03-15T17:46:37.322Z,98653.69
2023-03-15T17:49:06.272Z,99120.75
2023-03-15T17:51:35.565Z,98780.72
2023-03-15T17:54:02.540Z,99234.28
2023-03-15T17:56:29.666Z,99825.41
2023-03-15T17:58:56.601Z,99350.44
2023-03-15T18:01:27.791Z,99738.22
2023-03-15T18:03:57.438Z,99568.81
2023-03-15T18:06:24.178Z,99318.41
2023-03-15T18:08:51.173Z,99687.19
2023-03-15T18:11:26.365Z,99808.75
2023-03-15T18:13:54.123Z,99807.03
2023-03-15T18:16:21.184Z,99759.59
2023-03-15T18:18:48.004Z,99592.00
2023-03-15T18:21:17.292Z,99750.25
2023-03-15T18:23:44.572Z,99841.91
2023-03-15T18:26:12.595Z,99707.66
2023-03-15T18:28:40.306Z,99847.28
2023-03-15T18:31:14.562Z,99855.34
2023-03-15T18:33:41.645Z,99861.09
2023-03-15T18:36:08.544Z,99569.47
2023-03-15T18:38:35.367Z,99817.75
2023-03-15T18:41:02.034Z,99849.31
2023-03-15T18:43:28.828Z,99810.28
2023-03-15T18:45:55.751Z,99689.94
2023-03-15T18:48:34.266Z,99755.59
2023-03-15T18:51:09.975Z,99787.78
2023-03-15T18:53:36.739Z,99761.16
2023-03-15T18:56:04.849Z,99719.84
2023-03-15T18:58:34.525Z,99830.88
2023-03-15T19:01:01.614Z,99705.13
2023-03-15T19:03:28.330Z,99745.34
2023-03-15T19:05:55.596Z,99616.41
2023-03-15T19:08:22.387Z,99907.19
2023-03-15T19:10:49.049Z,99848.00
2023-03-15T19:13:15.719Z,99813.31
2023-03-15T19:15:42.390Z,99762.94
2023-03-15T19:18:09.296Z,99819.63
2023-03-15T19:20:37.055Z,99870.69
2023-03-15T19:23:06.094Z,99934.94
2023-03-15T19:25:32.861Z,99879.63
2023-03-15T19:27:59.540Z,99796.31
2023-03-15T19:30:27.562Z,99864.06
2023-03-15T19:32:54.317Z,99730.25
2023-03-15T19:35:21.490Z,99844.19
2023-03-15T19:37:48.930Z,99824.34
2023-03-15T19:40:16.808Z,99756.47
2023-03-15T19:42:43.690Z,99792.78
2023-03-15T19:45:10.949Z,99933.28
2023-03-15T19:47:37.673Z,99970.94
2023-03-15T19:50:05.361Z,99830.84
2023-03-15T19:52:33.408Z,99971.84
2023-03-15T19:55:01.121Z,99973.44
2023-03-15T19:57:28.414Z,99998.22
2023-03-15T19:59:55.197Z,99729.19
2023-03-15T20:02:21.902Z,99954.72
2023-03-15T20:04:48.561Z,99466.75
2023-03-15T20:07:15.306Z,99728.94
2023-03-15T20:09:42.108Z,99868.00
2023-03-15T20:12:26.791Z,99826.03
2023-03-15T20:14:53.614Z,99830.38
2023-03-15T20:17:22.911Z,100066.19
2023-03-15T20:19:49.806Z,99848.00
2023-03-15T20:22:16.461Z,100006.59
2023-03-15T20:24:44.270Z,99871.09
2023-03-15T20:27:11.740Z,99964.72
2023-03-15T20:29:38.594Z,100024.19
2023-03-15T20:32:05.508Z,99960.56
2023-03-15T20:34:32.207Z,99873.19
2023-03-15T20:37:00.977Z,100032.69
2023-03-15T20:39:34.954Z,99742.06
2023-03-15T20:42:01.644Z,99967.66
2023-03-15T20:44:28.318Z,99947.94
2023-03-15T20:46:58.775Z,100045.22
2023-03-15T20:49:26.994Z,99885.59
2023-03-15T20:51:55.520Z,99878.09
2023-03-15T20:54:22.120Z,99907.66
2023-03-15T20:56:48.733Z,99962.06
2023-03-15T20:59:15.385Z,99928.31
2023-03-15T21:01:45.673Z,99992.38
2023-03-15T21:04:15.492Z,99907.19
2023-03-15T21:06:44.348Z,99826.34
2023-03-15T21:09:11.148Z,99918.22
2023-03-15T21:11:38.093Z,99754.78
2023-03-15T21:14:04.930Z,99635.97
2023-03-15T21:16:35.382Z,100088.91
2023-03-15T21:19:02.622Z,99899.63
2023-03-15T21:21:32.220Z,100019.88
2023-03-15T21:23:58.847Z,99935.66
2023-03-15T21:26:25.699Z,99924.97
2023-03-15T21:28:52.318Z,99762.53
2023-03-15T21:31:19.048Z,99976.38
2023-03-15T21:33:45.861Z,99931.75
2023-03-15T21:36:12.471Z,99952.00
2023-03-15T21:38:39.248Z,99991.75
2023-03-15T21:41:07.517Z,99943.66
2023-03-15T21:43:34.222Z,100145.38
2023-03-15T21:46:09.529Z,100033.31
2023-03-15T21:48:37.204Z,100045.69
2023-03-15T21:51:04.808Z,99917.13
2023-03-15T21:53:34.081Z,99485.81
2023-03-15T21:56:03.792Z,99852.41
2023-03-15T21:58:31.342Z,100078.59
2023-03-15T22:01:04.555Z,100192.44
2023-03-15T22:03:33.041Z,99937.69
2023-03-15T22:06:00.034Z,99901.69
2023-03-15T22:08:27.202Z,99897.09
2023-03-15T22:10:54.960Z,100140.88
2023-03-15T22:13:22.315Z,100034.72
2023-03-15T22:15:49.405Z,100086.09
2023-03-15T22:18:16.221Z,100016.66
2023-03-15T22:20:43.316Z,99993.91
2023-03-15T22:23:12.107Z,99929.50
2023-03-15T22:25:40.079Z,99659.97
2023-03-15T22:28:07.271Z,100198.03
2023-03-15T22:30:34.096Z,100189.13
2023-03-15T22:33:01.057Z,100068.53
2023-03-15T22:35:27.914Z,100030.72
2023-03-15T22:37:59.632Z,100111.09
2023-03-15T22:40:28.308Z,99934.75
2023-03-15T22:42:57.221Z,100045.19
2023-03-15T22:45:25.954Z,100003.88
2023-03-15T22:47:53.023Z,100030.28
2023-03-15T22:50:20.156Z,100192.78
2023-03-15T22:52:47.136Z,100033.81
2023-03-15T22:55:14.311Z,99345.06
2023-03-15T22:57:41.055Z,100221.97
2023-03-15T23:00:13.759Z,99967.13
2023-03-15T23:02:41.968Z,100132.03
2023-03-15T23:05:09.974Z,100223.72
2023-03-15T23:07:36.716Z,100303.47
2023-03-15T23:10:04.631Z,100220.19
2023-03-15T23:12:36.169Z,100137.53
2023-03-15T23:15:04.475Z,99698.09
2023-03-15T23:17:31.541Z,100222.38
2023-03-15T23:19:58.332Z,100135.09
2023-03-15T23:22:25.138Z,100105.53
2023-03-15T23:24:51.801Z,100237.75
2023-03-15T23:27:18.751Z,100137.28
2023-03-15T23:29:54.496Z,100126.50
2023-03-15T23:32:23.233Z,100234.31
2023-03-15T23:34:53.712Z,100249.13
2023-03-15T23:37:21.220Z,99992.50
2023-03-15T23:39:48.165Z,99862.66
2023-03-15T23:42:16.196Z,100255.56
2023-03-15T23:44:43.329Z,100365.31
2023-03-15T23:47:10.246Z,100266.53
2023-03-15T23:49:36.908Z,100179.53
2023-03-15T23:52:05.843Z,100175.63
2023-03-15T23:54:40.308Z,100119.72
2023-03-15T23:57:18.949Z,100280.50
2023-03-15T23:59:45.809Z,100275.72
